createdAt,value
2016-02-03T00:00:06.430Z,0
2016-02-03T00:01:06.464Z,0
2016-02-03T00:02:06.514Z,0
2016-02-03T00:03:06.564Z,0
2016-02-03T00:04:06.630Z,0
2016-02-03T00:05:06.694Z,0
2016-02-03T00:06:06.744Z,0
2016-02-03T00:07:06.794Z,0
2016-02-03T00:08:06.859Z,0
2016-02-03T00:09:06.893Z,0
2016-02-03T00:10:06.942Z,0
2016-02-03T00:11:07.024Z,0
2016-02-03T00:12:07.057Z,0
2016-02-03T00:13:07.091Z,0
2016-02-03T00:14:07.189Z,0
2016-02-03T00:15:07.224Z,0
2016-02-03T00:16:07.289Z,0
2016-02-03T00:17:07.323Z,0
2016-02-03T00:18:07.387Z,0
2016-02-03T00:19:07.438Z,0
2016-02-03T00:20:07.472Z,0
2016-02-03T00:21:07.538Z,0
2016-02-03T00:22:07.587Z,0
2016-02-03T00:23:07.651Z,0
2016-02-03T00:24:07.737Z,0
2016-02-03T00:25:07.755Z,0
2016-02-03T00:26:07.820Z,0
2016-02-03T00:27:07.885Z,0
2016-02-03T00:28:07.923Z,0
2016-02-03T00:29:07.989Z,0
2016-02-03T00:30:08.054Z,0
2016-02-03T00:31:07.916Z,0
2016-02-03T00:32:08.154Z,0
2016-02-03T00:33:08.183Z,0
2016-02-03T00:34:08.250Z,0
2016-02-03T00:35:08.314Z,0
2016-02-03T00:36:08.333Z,0
2016-02-03T00:37:08.413Z,0
2016-02-03T00:38:08.464Z,0
2016-02-03T00:39:08.498Z,0
2016-02-03T00:40:08.563Z,0
2016-02-03T00:41:08.640Z,0
2016-02-03T00:42:08.674Z,0
2016-02-03T00:43:08.696Z,0
2016-02-03T00:44:08.767Z,0
2016-02-03T00:45:08.847Z,0
2016-02-03T00:46:08.866Z,0
2016-02-03T00:47:08.946Z,0
2016-02-03T00:48:08.980Z,0
2016-02-03T00:49:09.046Z,0
2016-02-03T00:50:09.128Z,0
2016-02-03T00:51:09.131Z,0
2016-02-03T00:52:09.196Z,0
2016-02-03T00:53:09.280Z,0
2016-02-03T00:54:09.313Z,0
2016-02-03T00:55:09.363Z,0
2016-02-03T00:56:09.272Z,0
2016-02-03T00:57:09.480Z,0
2016-02-03T00:58:09.513Z,0
2016-02-03T00:59:09.562Z,0
2016-02-03T01:00:09.643Z,0
2016-02-03T01:01:09.662Z,0
2016-02-03T01:02:09.711Z,0
2016-02-03T01:03:09.807Z,0
2016-02-03T01:04:09.860Z,0
2016-02-03T01:05:09.878Z,0
2016-02-03T01:06:09.976Z,0
2016-02-03T01:07:09.994Z,0
2016-02-03T01:08:10.059Z,0
2016-02-03T01:09:10.113Z,0
2016-02-03T01:10:10.164Z,0
2016-02-03T01:11:10.213Z,0
2016-02-03T01:12:10.278Z,0
2016-02-03T01:13:10.327Z,0
2016-02-03T01:14:10.408Z,0
2016-02-03T01:15:10.459Z,0
2016-02-03T01:16:10.509Z,0
2016-02-03T01:17:10.527Z,0
2016-02-03T01:18:10.607Z,0
2016-02-03T01:19:10.641Z,0
2016-02-03T01:20:10.676Z,0
2016-02-03T01:21:10.755Z,0
2016-02-03T01:22:10.803Z,0
2016-02-03T01:23:10.853Z,0
2016-02-03T01:24:10.905Z,0
2016-02-03T01:25:10.940Z,0
2016-02-03T01:26:11.006Z,0
2016-02-03T01:27:11.070Z,0
2016-02-03T01:28:11.106Z,0
2016-02-03T01:29:11.171Z,0
2016-02-03T01:30:11.236Z,0
2016-02-03T01:31:11.270Z,0
2016-02-03T01:32:11.320Z,0
2016-02-03T01:33:11.401Z,0
2016-02-03T01:34:11.419Z,0
2016-02-03T01:35:11.485Z,0
2016-02-03T01:36:11.550Z,0
2016-02-03T01:37:11.599Z,0
2016-02-03T01:38:11.648Z,0
2016-02-03T01:39:11.745Z,0
2016-02-03T01:40:11.608Z,0
2016-02-03T01:41:11.813Z,0
2016-02-03T01:42:11.863Z,0
2016-02-03T01:43:11.913Z,0
2016-02-03T01:44:12.041Z,0
2016-02-03T01:45:12.028Z,0
2016-02-03T01:46:12.062Z,0
2016-02-03T01:47:12.142Z,0
2016-02-03T01:48:12.240Z,0
2016-02-03T01:49:12.242Z,0
2016-02-03T01:50:12.338Z,0
2016-02-03T01:51:12.356Z,0
2016-02-03T01:52:12.641Z,0
2016-02-03T01:53:12.459Z,0
2016-02-03T01:54:12.494Z,0
2016-02-03T01:55:12.574Z,0
2016-02-03T01:56:12.608Z,0
2016-02-03T01:57:12.657Z,0
2016-02-03T01:58:12.723Z,0
2016-02-03T01:59:12.809Z,0
2016-02-03T02:00:12.842Z,0
2016-02-03T02:01:12.876Z,0
2016-02-03T02:02:12.942Z,0
2016-02-03T02:03:13.007Z,0
2016-02-03T02:04:13.041Z,0
2016-02-03T02:05:12.919Z,0
2016-02-03T02:06:13.171Z,0
2016-02-03T02:07:13.206Z,0
2016-02-03T02:08:13.270Z,0
2016-02-03T02:09:13.305Z,0
2016-02-03T02:10:13.369Z,0
2016-02-03T02:11:13.421Z,0
2016-02-03T02:12:13.485Z,0
2016-02-03T02:13:13.535Z,0
2016-02-03T02:14:13.568Z,0
2016-02-03T02:15:13.639Z,0
2016-02-03T02:16:13.704Z,0
2016-02-03T02:17:13.738Z,0
2016-02-03T02:18:13.788Z,0
2016-02-03T02:19:13.838Z,0
2016-02-03T02:20:13.903Z,0
2016-02-03T02:21:13.984Z,0
2016-02-03T02:22:14.010Z,0
2016-02-03T02:23:14.044Z,0
2016-02-03T02:24:14.140Z,0
2016-02-03T02:25:14.159Z,0
2016-02-03T02:26:14.209Z,0
2016-02-03T02:27:14.305Z,0
2016-02-03T02:28:14.323Z,0
2016-02-03T02:29:14.372Z,0
2016-02-03T02:30:14.408Z,0
2016-02-03T02:31:14.473Z,0
2016-02-03T02:32:14.540Z,0
2016-02-03T02:33:14.606Z,0
2016-02-03T02:34:14.641Z,0
2016-02-03T02:35:14.706Z,0
2016-02-03T02:36:14.739Z,0
2016-02-03T02:37:14.792Z,0
2016-02-03T02:38:14.856Z,0
2016-02-03T02:39:14.907Z,0
2016-02-03T02:40:14.972Z,0
2016-02-03T02:41:15.037Z,0
2016-02-03T02:42:15.073Z,0
2016-02-03T02:43:15.124Z,0
2016-02-03T02:44:15.173Z,0
2016-02-03T02:45:15.254Z,0
2016-02-03T02:46:15.287Z,0
2016-02-03T02:47:15.337Z,0
2016-02-03T02:48:15.403Z,0
2016-02-03T02:49:15.426Z,0
2016-02-03T02:50:15.491Z,0
2016-02-03T02:51:15.571Z,0
2016-02-03T02:52:15.590Z,0
2016-02-03T02:53:15.640Z,0
2016-02-03T02:54:15.706Z,0
2016-02-03T02:55:15.769Z,0
2016-02-03T02:56:16.029Z,0
2016-02-03T02:57:17.697Z,0
2016-02-03T02:58:16.144Z,0
2016-02-03T02:59:16.048Z,0
2016-02-03T03:00:16.238Z,0
2016-02-03T03:01:16.132Z,0
2016-02-03T03:02:16.118Z,0
2016-02-03T03:03:16.168Z,0
2016-02-03T03:04:16.249Z,0
2016-02-03T03:05:16.298Z,0
2016-02-03T03:06:16.334Z,0
2016-02-03T03:07:16.414Z,0
2016-02-03T03:08:16.434Z,0
2016-02-03T03:09:16.531Z,0
2016-02-03T03:10:16.595Z,0
2016-02-03T03:11:16.630Z,0
2016-02-03T03:12:16.664Z,0
2016-02-03T03:13:16.840Z,0
2016-02-03T03:14:16.779Z,0
2016-02-03T03:15:16.861Z,0
2016-02-03T03:16:16.864Z,0
2016-02-03T03:17:16.929Z,0
2016-02-03T03:18:16.993Z,0
2016-02-03T03:19:17.028Z,0
2016-02-03T03:20:17.094Z,0
2016-02-03T03:21:17.144Z,0
2016-02-03T03:22:17.178Z,0
2016-02-03T03:23:17.243Z,0
2016-02-03T03:24:17.293Z,0
2016-02-03T03:25:17.359Z,0
2016-02-03T03:26:17.408Z,0
2016-02-03T03:27:17.459Z,0
2016-02-03T03:28:17.539Z,0
2016-02-03T03:29:17.574Z,0
2016-02-03T03:30:17.623Z,0
2016-02-03T03:31:17.673Z,0
2016-02-03T03:32:17.755Z,0
2016-02-03T03:33:17.804Z,0
2016-02-03T03:34:17.838Z,0
2016-02-03T03:35:17.888Z,0
2016-02-03T03:36:17.968Z,0
2016-02-03T03:37:17.987Z,0
2016-02-03T03:38:18.036Z,0
2016-02-03T03:39:18.118Z,0
2016-02-03T03:40:18.167Z,0
2016-02-03T03:41:18.232Z,0
2016-02-03T03:42:18.281Z,0
2016-02-03T03:43:18.331Z,0
2016-02-03T03:44:18.368Z,0
2016-02-03T03:45:18.433Z,0
2016-02-03T03:46:18.498Z,0
2016-02-03T03:47:18.531Z,0
2016-02-03T03:48:18.597Z,0
2016-02-03T03:49:18.647Z,0
2016-02-03T03:50:18.697Z,0
2016-02-03T03:51:18.746Z,0
2016-02-03T03:52:18.796Z,0
2016-02-03T03:53:18.846Z,0
2016-02-03T03:54:18.912Z,0
2016-02-03T03:55:18.962Z,0
2016-02-03T03:56:19.011Z,0
2016-02-03T03:57:19.060Z,0
2016-02-03T03:58:19.127Z,0
2016-02-03T03:59:19.161Z,0
2016-02-03T04:00:19.258Z,0
2016-02-03T04:01:19.275Z,0
2016-02-03T04:02:19.325Z,0
2016-02-03T04:03:19.409Z,0
2016-02-03T04:04:19.476Z,0
2016-02-03T04:05:19.493Z,0
2016-02-03T04:06:19.542Z,0
2016-02-03T04:07:19.593Z,0
2016-02-03T04:08:19.658Z,0
2016-02-03T04:09:19.708Z,0
2016-02-03T04:10:19.773Z,0
2016-02-03T04:11:19.807Z,0
2016-02-03T04:12:19.873Z,0
2016-02-03T04:13:19.907Z,0
2016-02-03T04:14:19.972Z,0
2016-02-03T04:15:19.868Z,0
2016-02-03T04:16:20.088Z,0
2016-02-03T04:17:20.123Z,0
2016-02-03T04:18:20.188Z,0
2016-02-03T04:19:20.238Z,0
2016-02-03T04:20:20.286Z,0
2016-02-03T04:21:20.352Z,0
2016-02-03T04:22:20.403Z,0
2016-02-03T04:23:20.468Z,0
2016-02-03T04:24:20.487Z,0
2016-02-03T04:25:20.584Z,0
2016-02-03T04:26:20.602Z,0
2016-02-03T04:27:20.655Z,0
2016-02-03T04:28:20.720Z,0
2016-02-03T04:29:20.769Z,0
2016-02-03T04:30:20.821Z,0
2016-02-03T04:31:20.901Z,0
2016-02-03T04:32:20.936Z,0
2016-02-03T04:33:20.984Z,0
2016-02-03T04:34:21.037Z,0
2016-02-03T04:35:21.117Z,0
2016-02-03T04:36:21.136Z,0
2016-02-03T04:37:21.233Z,0
2016-02-03T04:38:21.282Z,0
2016-02-03T04:39:21.300Z,0
2016-02-03T04:40:21.366Z,0
2016-02-03T04:41:21.430Z,0
2016-02-03T04:42:21.450Z,0
2016-02-03T04:43:21.514Z,0
2016-02-03T04:44:21.565Z,0
2016-02-03T04:45:21.644Z,0
2016-02-03T04:46:21.523Z,0
2016-02-03T04:47:21.730Z,0
2016-02-03T04:48:21.779Z,0
2016-02-03T04:49:21.814Z,0
2016-02-03T04:50:21.736Z,0
2016-02-03T04:51:21.956Z,0
2016-02-03T04:52:22.006Z,0
2016-02-03T04:53:22.041Z,0
2016-02-03T04:54:22.122Z,0
2016-02-03T04:55:22.141Z,0
2016-02-03T04:56:22.191Z,0
2016-02-03T04:57:22.255Z,0
2016-02-03T04:58:22.321Z,0
2016-02-03T04:59:22.355Z,0
2016-02-03T05:00:22.421Z,0
2016-02-03T05:01:22.485Z,0
2016-02-03T05:02:22.535Z,0
2016-02-03T05:03:22.569Z,0
2016-02-03T05:04:22.498Z,0
2016-02-03T05:05:22.694Z,0
2016-02-03T05:06:22.744Z,0
2016-02-03T05:07:22.856Z,0
2016-02-03T05:08:22.843Z,0
2016-02-03T05:09:22.909Z,0
2016-02-03T05:10:22.193Z,0
2016-02-03T05:11:23.007Z,0
2016-02-03T05:12:23.089Z,0
2016-02-03T05:13:23.110Z,0
2016-02-03T05:14:23.144Z,0
2016-02-03T05:15:23.225Z,0
2016-02-03T05:16:23.274Z,0
2016-02-03T05:17:23.325Z,0
2016-02-03T05:18:23.375Z,0
2016-02-03T05:19:23.424Z,0
2016-02-03T05:20:23.489Z,0
2016-02-03T05:21:23.538Z,0
2016-02-03T05:22:23.572Z,0
2016-02-03T05:23:23.638Z,0
2016-02-03T05:24:23.705Z,0
2016-02-03T05:25:23.740Z,0
2016-02-03T05:26:23.821Z,0
2016-02-03T05:27:23.855Z,0
2016-02-03T05:28:23.904Z,0
2016-02-03T05:29:23.973Z,0
2016-02-03T05:30:24.023Z,0
2016-02-03T05:31:24.073Z,0
2016-02-03T05:32:24.122Z,0
2016-02-03T05:33:24.172Z,0
2016-02-03T05:34:24.237Z,0
2016-02-03T05:35:24.303Z,0
2016-02-03T05:36:24.337Z,0
2016-02-03T05:37:24.387Z,0
2016-02-03T05:38:24.503Z,0
2016-02-03T05:39:24.492Z,0
2016-02-03T05:40:24.541Z,0
2016-02-03T05:41:24.607Z,0
2016-02-03T05:42:24.657Z,0
2016-02-03T05:43:24.707Z,0
2016-02-03T05:44:24.742Z,0
2016-02-03T05:45:24.806Z,0
2016-02-03T05:46:24.872Z,0
2016-02-03T05:47:24.936Z,0
2016-02-03T05:48:25.003Z,0
2016-02-03T05:49:25.036Z,0
2016-02-03T05:50:25.086Z,0
2016-02-03T05:51:25.151Z,0
2016-02-03T05:52:25.200Z,0
2016-02-03T05:53:25.251Z,0
2016-02-03T05:54:25.332Z,0
2016-02-03T05:55:25.350Z,0
2016-02-03T05:56:25.404Z,0
2016-02-03T05:57:25.453Z,0
2016-02-03T05:58:25.517Z,0
2016-02-03T05:59:25.552Z,0
2016-02-03T06:00:25.616Z,0
2016-02-03T06:01:25.714Z,0
2016-02-03T06:02:25.717Z,0
2016-02-03T06:03:25.781Z,0
2016-02-03T06:04:25.846Z,0
2016-02-03T06:05:25.865Z,0
2016-02-03T06:06:25.930Z,0
2016-02-03T06:07:25.995Z,0
2016-02-03T06:08:26.032Z,0
2016-02-03T06:09:26.083Z,0
2016-02-03T06:10:26.179Z,0
2016-02-03T06:11:26.198Z,0
2016-02-03T06:12:26.247Z,0
2016-02-03T06:13:26.344Z,0
2016-02-03T06:14:26.346Z,0
2016-02-03T06:15:26.416Z,0
2016-02-03T06:16:26.465Z,0
2016-02-03T06:17:26.515Z,0
2016-02-03T06:18:26.580Z,0
2016-02-03T06:19:26.614Z,0
2016-02-03T06:20:26.680Z,0
2016-02-03T06:21:26.714Z,0
2016-02-03T06:22:26.796Z,0
2016-02-03T06:23:26.852Z,0
2016-02-03T06:24:26.886Z,0
2016-02-03T06:25:26.952Z,0
2016-02-03T06:26:27.018Z,0
2016-02-03T06:27:27.055Z,0
2016-02-03T06:28:27.105Z,0
2016-02-03T06:29:27.139Z,0
2016-02-03T06:30:27.235Z,0
2016-02-03T06:31:27.284Z,0
2016-02-03T06:32:27.318Z,0
2016-02-03T06:33:27.353Z,0
2016-02-03T06:34:27.418Z,0
2016-02-03T06:35:27.482Z,0
2016-02-03T06:36:27.548Z,0
2016-02-03T06:37:27.597Z,0
2016-02-03T06:38:27.648Z,0
2016-02-03T06:39:27.712Z,0
2016-02-03T06:40:27.745Z,0
2016-02-03T06:41:27.780Z,0
2016-02-03T06:42:27.845Z,0
2016-02-03T06:43:27.895Z,0
2016-02-03T06:44:27.960Z,0
2016-02-03T06:45:28.009Z,0
2016-02-03T06:46:28.062Z,0
2016-02-03T06:47:28.111Z,0
2016-02-03T06:48:28.208Z,0
2016-02-03T06:49:28.225Z,0
2016-02-03T06:50:28.291Z,0
2016-02-03T06:51:28.376Z,0
2016-02-03T06:52:28.394Z,0
2016-02-03T06:53:28.432Z,4
2016-02-03T06:54:28.512Z,4
2016-02-03T06:55:28.562Z,4
2016-02-03T06:56:28.596Z,4
2016-02-03T06:57:28.646Z,4
2016-02-03T06:58:28.712Z,0
2016-02-03T06:59:28.762Z,0
2016-02-03T07:00:28.827Z,0
2016-02-03T07:01:28.892Z,0
2016-02-03T07:02:28.901Z,0
2016-02-03T07:03:28.955Z,0
2016-02-03T07:04:29.010Z,4
2016-02-03T07:05:29.034Z,4
2016-02-03T07:06:29.091Z,4
2016-02-03T07:07:29.183Z,4
2016-02-03T07:08:29.182Z,4
2016-02-03T07:09:29.213Z,4
2016-02-03T07:10:29.276Z,4
2016-02-03T07:11:29.306Z,4
2016-02-03T07:12:29.385Z,8
2016-02-03T07:13:29.449Z,8
2016-02-03T07:14:29.466Z,8
2016-02-03T07:15:29.530Z,4
2016-02-03T07:16:29.578Z,8
2016-02-03T07:17:29.643Z,8
2016-02-03T07:18:29.724Z,8
2016-02-03T07:19:29.726Z,12
2016-02-03T07:20:29.808Z,12
2016-02-03T07:21:29.840Z,8
2016-02-03T07:22:29.735Z,12
2016-02-03T07:23:29.941Z,12
2016-02-03T07:24:30.005Z,12
2016-02-03T07:25:30.071Z,8
2016-02-03T07:26:30.105Z,8
2016-02-03T07:27:30.169Z,12
2016-02-03T07:28:30.063Z,16
2016-02-03T07:29:30.319Z,12
2016-02-03T07:30:30.322Z,12
2016-02-03T07:31:30.387Z,16
2016-02-03T07:32:30.421Z,20
2016-02-03T07:33:30.485Z,16
2016-02-03T07:34:30.552Z,20
2016-02-03T07:35:30.601Z,20
2016-02-03T07:36:30.932Z,24
2016-02-03T07:37:30.685Z,24
2016-02-03T07:38:30.750Z,24
2016-02-03T07:39:30.816Z,28
2016-02-03T07:40:30.849Z,36
2016-02-03T07:41:30.931Z,36
2016-02-03T07:42:30.965Z,36
2016-02-03T07:43:31.014Z,48
2016-02-03T07:44:31.081Z,52
2016-02-03T07:45:31.098Z,44
2016-02-03T07:46:31.211Z,40
2016-02-03T07:47:31.228Z,44
2016-02-03T07:48:31.294Z,40
2016-02-03T07:49:31.325Z,44
2016-02-03T07:50:31.405Z,52
2016-02-03T07:51:31.440Z,52
2016-02-03T07:52:31.506Z,56
2016-02-03T07:53:31.556Z,52
2016-02-03T07:54:31.589Z,56
2016-02-03T07:55:31.670Z,56
2016-02-03T07:56:31.704Z,60
2016-02-03T07:57:31.769Z,60
2016-02-03T07:58:31.834Z,60
2016-02-03T07:59:31.869Z,60
2016-02-03T08:00:31.918Z,68
2016-02-03T08:01:31.983Z,60
2016-02-03T08:02:32.017Z,60
2016-02-03T08:03:32.098Z,60
2016-02-03T08:04:32.163Z,56
2016-02-03T08:05:32.166Z,60
2016-02-03T08:06:32.246Z,64
2016-02-03T08:07:32.297Z,72
2016-02-03T08:08:32.191Z,72
2016-02-03T08:09:32.396Z,72
2016-02-03T08:10:32.571Z,68
2016-02-03T08:11:32.495Z,72
2016-02-03T08:12:32.576Z,76
2016-02-03T08:13:32.626Z,80
2016-02-03T08:14:32.675Z,84
2016-02-03T08:15:32.710Z,84
2016-02-03T08:16:32.743Z,92
2016-02-03T08:17:32.058Z,88
2016-02-03T08:18:32.905Z,92
2016-02-03T08:19:32.908Z,88
2016-02-03T08:20:32.975Z,84
2016-02-03T08:21:33.042Z,88
2016-02-03T08:22:33.075Z,88
2016-02-03T08:23:33.142Z,96
2016-02-03T08:24:33.159Z,96
2016-02-03T08:25:33.240Z,104
2016-02-03T08:26:33.321Z,112
2016-02-03T08:27:33.324Z,116
2016-02-03T08:28:33.405Z,56
2016-02-03T08:29:33.423Z,44
2016-02-03T08:30:33.488Z,44
2016-02-03T08:31:33.538Z,108
2016-02-03T08:32:33.589Z,108
2016-02-03T08:33:33.670Z,108
2016-02-03T08:34:33.687Z,96
2016-02-03T08:35:33.768Z,104
2016-02-03T08:36:33.833Z,60
2016-02-03T08:37:33.852Z,68
2016-02-03T08:38:33.900Z,76
2016-02-03T08:39:33.951Z,76
2016-02-03T08:40:34.001Z,76
2016-02-03T08:41:34.082Z,80
2016-02-03T08:42:34.116Z,72
2016-02-03T08:43:34.165Z,56
2016-02-03T08:44:34.232Z,52
2016-02-03T08:45:34.251Z,52
2016-02-03T08:46:34.317Z,48
2016-02-03T08:47:34.382Z,52
2016-02-03T08:48:34.400Z,52
2016-02-03T08:49:34.454Z,52
2016-02-03T08:50:34.519Z,52
2016-02-03T08:51:34.571Z,52
2016-02-03T08:52:34.637Z,28
2016-02-03T08:53:34.687Z,44
2016-02-03T08:54:33.986Z,56
2016-02-03T08:55:34.786Z,52
2016-02-03T08:56:34.821Z,56
2016-02-03T08:57:34.886Z,36
2016-02-03T08:58:34.952Z,32
2016-02-03T08:59:34.986Z,44
2016-02-03T09:00:35.035Z,32
2016-02-03T09:01:35.100Z,28
2016-02-03T09:02:35.134Z,44
2016-02-03T09:03:35.206Z,24
2016-02-03T09:04:35.293Z,52
2016-02-03T09:05:35.313Z,56
2016-02-03T09:06:35.352Z,56
2016-02-03T09:07:35.402Z,56
2016-02-03T09:08:35.451Z,48
2016-02-03T09:09:35.532Z,64
2016-02-03T09:10:35.583Z,84
2016-02-03T09:11:35.616Z,88
2016-02-03T09:12:35.666Z,92
2016-02-03T09:13:35.716Z,92
2016-02-03T09:14:35.769Z,92
2016-02-03T09:15:35.833Z,100
2016-02-03T09:16:35.883Z,132
2016-02-03T09:17:35.917Z,144
2016-02-03T09:18:35.999Z,152
2016-02-03T09:19:36.048Z,156
2016-02-03T09:20:36.096Z,168
2016-02-03T09:21:36.007Z,176
2016-02-03T09:22:36.218Z,172
2016-02-03T09:23:36.236Z,180
2016-02-03T09:24:36.302Z,176
2016-02-03T09:25:36.366Z,108
2016-02-03T09:26:36.416Z,156
2016-02-03T09:27:36.465Z,168
2016-02-03T09:28:36.515Z,172
2016-02-03T09:29:36.564Z,188
2016-02-03T09:30:36.629Z,204
2016-02-03T09:31:36.664Z,252
2016-02-03T09:32:36.713Z,252
2016-02-03T09:33:36.762Z,276
2016-02-03T09:34:36.812Z,228
2016-02-03T09:35:36.925Z,248
2016-02-03T09:36:36.928Z,256
2016-02-03T09:37:37.008Z,252
2016-02-03T09:38:37.026Z,256
2016-02-03T09:39:37.075Z,256
2016-02-03T09:40:37.141Z,160
2016-02-03T09:41:37.191Z,280
2016-02-03T09:42:37.240Z,284
2016-02-03T09:43:37.290Z,300
2016-02-03T09:44:37.340Z,248
2016-02-03T09:45:37.389Z,260
2016-02-03T09:46:37.471Z,300
2016-02-03T09:47:37.521Z,308
2016-02-03T09:48:37.554Z,300
2016-02-03T09:49:37.620Z,276
2016-02-03T09:50:37.639Z,316
2016-02-03T09:51:37.721Z,324
2016-02-03T09:52:37.785Z,328
2016-02-03T09:53:37.835Z,320
2016-02-03T09:54:37.869Z,328
2016-02-03T09:55:37.919Z,328
2016-02-03T09:56:37.984Z,344
2016-02-03T09:57:38.033Z,352
2016-02-03T09:58:37.942Z,356
2016-02-03T09:59:38.132Z,364
2016-02-03T10:00:38.199Z,356
2016-02-03T10:01:38.232Z,356
2016-02-03T10:02:38.296Z,352
2016-02-03T10:03:38.362Z,364
2016-02-03T10:04:38.411Z,380
2016-02-03T10:05:38.446Z,340
2016-02-03T10:06:38.497Z,128
2016-02-03T10:07:38.546Z,120
2016-02-03T10:08:38.595Z,272
2016-02-03T10:09:38.661Z,164
2016-02-03T10:10:38.741Z,144
2016-02-03T10:11:38.775Z,392
2016-02-03T10:12:38.840Z,176
2016-02-03T10:13:38.893Z,388
2016-02-03T10:14:38.911Z,348
2016-02-03T10:15:38.961Z,108
2016-02-03T10:16:39.057Z,320
2016-02-03T10:17:39.076Z,132
2016-02-03T10:18:39.142Z,252
2016-02-03T10:19:39.186Z,284
2016-02-03T10:20:39.236Z,212
2016-02-03T10:21:39.302Z,196
2016-02-03T10:22:39.366Z,200
2016-02-03T10:23:39.432Z,192
2016-02-03T10:24:39.449Z,236
2016-02-03T10:25:39.548Z,252
2016-02-03T10:26:39.550Z,264
2016-02-03T10:27:39.615Z,256
2016-02-03T10:28:39.680Z,212
2016-02-03T10:29:39.746Z,248
2016-02-03T10:30:39.780Z,212
2016-02-03T10:31:39.829Z,224
2016-02-03T10:32:39.878Z,144
2016-02-03T10:33:39.928Z,216
2016-02-03T10:34:39.978Z,240
2016-02-03T10:35:40.012Z,204
2016-02-03T10:36:40.092Z,244
2016-02-03T10:37:40.005Z,240
2016-02-03T10:38:40.163Z,112
2016-02-03T10:39:40.260Z,108
2016-02-03T10:40:40.294Z,168
2016-02-03T10:41:40.328Z,156
2016-02-03T10:42:40.408Z,148
2016-02-03T10:43:40.458Z,132
2016-02-03T10:44:40.526Z,72
2016-02-03T10:45:40.559Z,112
2016-02-03T10:46:40.624Z,76
2016-02-03T10:47:40.487Z,76
2016-02-03T10:48:40.723Z,132
2016-02-03T10:49:40.789Z,76
2016-02-03T10:50:40.839Z,64
2016-02-03T10:51:40.856Z,64
2016-02-03T10:52:40.906Z,140
2016-02-03T10:53:40.976Z,84
2016-02-03T10:54:41.026Z,96
2016-02-03T10:55:41.091Z,152
2016-02-03T10:56:41.157Z,136
2016-02-03T10:57:41.190Z,160
2016-02-03T10:58:41.240Z,172
2016-02-03T10:59:41.290Z,164
2016-02-03T11:00:41.356Z,164
2016-02-03T11:01:41.406Z,156
2016-02-03T11:02:41.455Z,140
2016-02-03T11:03:41.505Z,116
2016-02-03T11:04:41.571Z,92
2016-02-03T11:05:41.621Z,108
2016-02-03T11:06:41.655Z,112
2016-02-03T11:07:41.719Z,84
2016-02-03T11:08:41.788Z,156
2016-02-03T11:09:41.838Z,160
2016-02-03T11:10:41.888Z,156
2016-02-03T11:11:41.921Z,152
2016-02-03T11:12:41.971Z,148
2016-02-03T11:13:42.035Z,156
2016-02-03T11:14:42.102Z,152
2016-02-03T11:15:42.140Z,160
2016-02-03T11:16:42.050Z,144
2016-02-03T11:17:42.240Z,136
2016-02-03T11:18:42.306Z,148
2016-02-03T11:19:42.339Z,144
2016-02-03T11:20:42.421Z,136
2016-02-03T11:21:42.502Z,132
2016-02-03T11:22:42.489Z,128
2016-02-03T11:23:42.554Z,92
2016-02-03T11:24:42.620Z,120
2016-02-03T11:25:42.685Z,120
2016-02-03T11:26:42.704Z,80
2016-02-03T11:27:42.817Z,92
2016-02-03T11:28:42.820Z,116
2016-02-03T11:29:42.730Z,120
2016-02-03T11:30:42.935Z,80
2016-02-03T11:31:42.985Z,116
2016-02-03T11:32:43.035Z,124
2016-02-03T11:33:43.100Z,144
2016-02-03T11:34:43.150Z,120
2016-02-03T11:35:43.202Z,120
2016-02-03T11:36:43.236Z,132
2016-02-03T11:37:43.301Z,128
2016-02-03T11:38:43.350Z,128
2016-02-03T11:39:43.447Z,132
2016-02-03T11:40:43.468Z,128
2016-02-03T11:41:43.517Z,84
2016-02-03T11:42:43.566Z,152
2016-02-03T11:43:43.632Z,128
2016-02-03T11:44:43.650Z,68
2016-02-03T11:45:43.731Z,68
2016-02-03T11:46:43.796Z,104
2016-02-03T11:47:43.830Z,80
2016-02-03T11:48:43.899Z,88
2016-02-03T11:49:43.934Z,132
2016-02-03T11:50:43.983Z,132
2016-02-03T11:51:44.064Z,140
2016-02-03T11:52:44.099Z,144
2016-02-03T11:53:44.150Z,136
2016-02-03T11:54:44.200Z,84
2016-02-03T11:55:44.250Z,136
2016-02-03T11:56:44.158Z,136
2016-02-03T11:57:44.380Z,148
2016-02-03T11:58:44.414Z,132
2016-02-03T11:59:44.466Z,124
2016-02-03T12:00:44.515Z,148
2016-02-03T12:01:44.565Z,128
2016-02-03T12:02:44.645Z,116
2016-02-03T12:03:44.523Z,128
2016-02-03T12:04:44.734Z,116
2016-02-03T12:05:44.799Z,88
2016-02-03T12:06:44.834Z,100
2016-02-03T12:07:44.883Z,120
2016-02-03T12:08:44.933Z,120
2016-02-03T12:09:45.013Z,124
2016-02-03T12:10:45.048Z,120
2016-02-03T12:11:44.941Z,8
2016-02-03T12:12:45.163Z,8
2016-02-03T12:13:45.197Z,0
2016-02-03T12:14:45.263Z,12
2016-02-03T12:15:45.327Z,8
2016-02-03T12:16:45.377Z,8
2016-02-03T12:17:45.410Z,4
2016-02-03T12:18:45.484Z,8
2016-02-03T12:19:45.517Z,8
2016-02-03T12:20:45.567Z,8
2016-02-03T12:21:45.616Z,8
2016-02-03T12:22:45.681Z,4
2016-02-03T12:23:45.748Z,4
2016-02-03T12:24:45.766Z,4
2016-02-03T12:25:45.835Z,0
2016-02-03T12:26:45.885Z,0
2016-02-03T12:27:45.934Z,0
2016-02-03T12:28:46.000Z,0
2016-02-03T12:29:46.049Z,0
2016-02-03T12:30:46.102Z,0
2016-02-03T12:31:46.151Z,0
2016-02-03T12:32:46.200Z,8
2016-02-03T12:33:46.297Z,8
2016-02-03T12:34:46.315Z,0
2016-02-03T12:35:46.368Z,4
2016-02-03T12:36:46.402Z,8
2016-02-03T12:37:46.516Z,0
2016-02-03T12:38:46.534Z,0
2016-02-03T12:39:46.568Z,0
2016-02-03T12:40:46.634Z,0
2016-02-03T12:41:46.682Z,4
2016-02-03T12:42:46.750Z,4
2016-02-03T12:43:46.815Z,4
2016-02-03T12:44:46.849Z,4
2016-02-03T12:45:46.898Z,4
2016-02-03T12:46:46.947Z,4
2016-02-03T12:47:47.028Z,4
2016-02-03T12:48:47.063Z,0
2016-02-03T12:49:47.113Z,4
2016-02-03T12:50:47.179Z,0
2016-02-03T12:51:47.229Z,0
2016-02-03T12:52:47.262Z,4
2016-02-03T12:53:47.329Z,0
2016-02-03T12:54:47.394Z,4
2016-02-03T12:55:47.428Z,4
2016-02-03T12:56:47.337Z,0
2016-02-03T12:57:47.546Z,0
2016-02-03T12:58:47.595Z,4
2016-02-03T12:59:47.676Z,0
2016-02-03T13:00:47.678Z,0
2016-02-03T13:01:47.743Z,0
2016-02-03T13:02:47.809Z,0
2016-02-03T13:03:47.843Z,0
2016-02-03T13:04:47.893Z,4
2016-02-03T13:05:47.958Z,0
2016-02-03T13:06:48.055Z,8
2016-02-03T13:07:48.073Z,8
2016-02-03T13:08:48.138Z,8
2016-02-03T13:09:48.171Z,16
2016-02-03T13:10:48.221Z,16
2016-02-03T13:11:48.287Z,16
2016-02-03T13:12:48.337Z,16
2016-02-03T13:13:48.401Z,24
2016-02-03T13:14:48.436Z,64
2016-02-03T13:15:48.485Z,72
2016-02-03T13:16:48.550Z,96
2016-02-03T13:17:48.443Z,52
2016-02-03T13:18:48.653Z,84
2016-02-03T13:19:48.702Z,44
2016-02-03T13:20:48.737Z,32
2016-02-03T13:21:48.789Z,24
2016-02-03T13:22:48.871Z,20
2016-02-03T13:23:48.904Z,20
2016-02-03T13:24:48.985Z,16
2016-02-03T13:25:49.018Z,20
2016-02-03T13:26:49.071Z,20
2016-02-03T13:27:49.151Z,16
2016-02-03T13:28:49.156Z,20
2016-02-03T13:29:49.221Z,16
2016-02-03T13:30:49.271Z,32
2016-02-03T13:31:49.352Z,40
2016-02-03T13:32:49.386Z,44
2016-02-03T13:33:49.422Z,36
2016-02-03T13:34:49.487Z,20
2016-02-03T13:35:49.521Z,20
2016-02-03T13:36:49.587Z,24
2016-02-03T13:37:49.652Z,24
2016-02-03T13:38:49.686Z,24
2016-02-03T13:39:49.751Z,24
2016-02-03T13:40:49.788Z,32
2016-02-03T13:41:49.852Z,28
2016-02-03T13:42:49.919Z,40
2016-02-03T13:43:49.952Z,44
2016-02-03T13:44:50.017Z,36
2016-02-03T13:45:50.083Z,24
2016-02-03T13:46:50.117Z,48
2016-02-03T13:47:50.198Z,36
2016-02-03T13:48:50.233Z,40
2016-02-03T13:49:50.282Z,44
2016-02-03T13:50:50.332Z,64
2016-02-03T13:51:50.381Z,40
2016-02-03T13:52:50.434Z,32
2016-02-03T13:53:50.498Z,36
2016-02-03T13:54:50.533Z,28
2016-02-03T13:55:50.597Z,32
2016-02-03T13:56:50.660Z,20
2016-02-03T13:57:50.695Z,20
2016-02-03T13:58:50.729Z,28
2016-02-03T13:59:50.794Z,24
2016-02-03T14:00:50.848Z,24
2016-02-03T14:01:50.896Z,24
2016-02-03T14:02:50.947Z,20
2016-02-03T14:03:51.012Z,20
2016-02-03T14:04:51.078Z,16
2016-02-03T14:05:51.127Z,24
2016-02-03T14:06:51.161Z,24
2016-02-03T14:07:51.226Z,24
2016-02-03T14:08:51.260Z,32
2016-02-03T14:09:51.310Z,32
2016-02-03T14:10:51.406Z,40
2016-02-03T14:11:51.424Z,32
2016-02-03T14:12:51.493Z,32
2016-02-03T14:13:51.526Z,32
2016-02-03T14:14:51.576Z,32
2016-02-03T14:15:51.626Z,32
2016-02-03T14:16:51.690Z,28
2016-02-03T14:17:51.584Z,28
2016-02-03T14:18:51.791Z,28
2016-02-03T14:19:51.840Z,32
2016-02-03T14:20:51.890Z,32
2016-02-03T14:21:51.971Z,28
2016-02-03T14:22:52.004Z,32
2016-02-03T14:23:52.054Z,28
2016-02-03T14:24:52.121Z,28
2016-02-03T14:25:52.154Z,28
2016-02-03T14:26:52.204Z,24
2016-02-03T14:27:52.253Z,28